createdAt,value
2023-01-29T21:55:52.002Z,85.45
2023-01-29T21:58:21.616Z,85.47
2023-01-29T22:00:49.688Z,85.07
2023-01-29T22:03:17.615Z,84.91
2023-01-29T22:05:45.495Z,84.76
2023-01-29T22:08:13.236Z,84.92
2023-01-29T22:10:41.336Z,84.86
2023-01-29T22:13:09.211Z,84.51
2023-01-29T22:15:36.966Z,83.87
2023-01-29T22:18:04.803Z,83.88
2023-01-29T22:20:32.663Z,83.68
2023-01-29T22:23:03.578Z,83.63
2023-01-29T22:25:32.514Z,83.33
2023-01-29T22:28:00.715Z,83.15
2023-01-29T22:30:28.513Z,82.52
2023-01-29T22:32:56.332Z,82.80
2023-01-29T22:35:24.149Z,81.85
2023-01-29T22:37:51.966Z,82.36
2023-01-29T22:40:19.929Z,82.12
2023-01-29T22:42:47.847Z,81.34
2023-01-29T22:45:15.630Z,80.73
2023-01-29T22:47:43.425Z,80.04
2023-01-29T22:50:11.227Z,80.87
2023-01-29T22:52:43.855Z,80.83
2023-01-29T22:55:11.655Z,81.01
2023-01-29T22:57:39.469Z,80.58
2023-01-29T23:00:07.202Z,80.71
2023-01-29T23:02:34.965Z,80.56
2023-01-29T23:05:02.735Z,80.44
2023-01-29T23:07:30.636Z,80.93
2023-01-29T23:09:58.388Z,80.90
2023-01-29T23:12:26.175Z,80.58
2023-01-29T23:14:53.905Z,80.99
2023-01-29T23:17:21.665Z,80.84
2023-01-29T23:19:49.410Z,80.81
2023-01-29T23:22:17.185Z,80.12
2023-01-29T23:24:44.971Z,80.15
2023-01-29T23:27:15.824Z,80.35
2023-01-29T23:29:43.640Z,80.50
2023-01-29T23:32:11.460Z,80.35
2023-01-29T23:34:39.241Z,79.85
2023-01-29T23:37:06.979Z,79.89
2023-01-29T23:39:34.803Z,80.22
2023-01-29T23:42:02.598Z,80.17
2023-01-29T23:44:30.379Z,80.24
2023-01-29T23:46:58.177Z,80.03
